sensor_id;sensor_type;location;lat;lon;timestamp;P1;durP1;ratioP1;P2;durP2;ratioP2
20751;SDS011;10536;51.582;5.016;2022-12-29T00:04:21;3.65;;;2.00;;
20751;SDS011;10536;51.582;5.016;2022-12-29T00:09:21;2.65;;;1.90;;
20751;SDS011;10536;51.582;5.016;2022-12-29T00:14:22;2.90;;;1.40;;
20751;SDS011;10536;51.582;5.016;2022-12-29T00:19:35;1.40;;;1.25;;
20751;SDS011;10536;51.582;5.016;2022-12-29T00:24:47;4.82;;;1.17;;
20751;SDS011;10536;51.582;5.016;2022-12-29T00:30:00;2.50;;;0.90;;
20751;SDS011;10536;51.582;5.016;2022-12-29T00:35:13;4.68;;;1.10;;
20751;SDS011;10536;51.582;5.016;2022-12-29T00:40:18;2.13;;;0.70;;
20751;SDS011;10536;51.582;5.016;2022-12-29T00:45:31;1.33;;;1.10;;
20751;SDS011;10536;51.582;5.016;2022-12-29T00:50:31;2.20;;;1.45;;
20751;SDS011;10536;51.582;5.016;2022-12-29T00:55:35;1.42;;;1.33;;
20751;SDS011;10536;51.582;5.016;2022-12-29T01:00:37;2.40;;;1.70;;
20751;SDS011;10536;51.582;5.016;2022-12-29T01:05:37;2.75;;;1.77;;
20751;SDS011;10536;51.582;5.016;2022-12-29T01:10:38;3.00;;;2.22;;
20751;SDS011;10536;51.582;5.016;2022-12-29T01:15:39;4.60;;;2.40;;
20751;SDS011;10536;51.582;5.016;2022-12-29T01:20:39;3.80;;;1.92;;
20751;SDS011;10536;51.582;5.016;2022-12-29T01:25:40;2.90;;;1.23;;
20751;SDS011;10536;51.582;5.016;2022-12-29T01:30:40;1.77;;;1.20;;
20751;SDS011;10536;51.582;5.016;2022-12-29T01:35:41;1.95;;;1.00;;
20751;SDS011;10536;51.582;5.016;2022-12-29T01:40:43;4.55;;;1.02;;
20751;SDS011;10536;51.582;5.016;2022-12-29T01:45:48;3.88;;;0.75;;
20751;SDS011;10536;51.582;5.016;2022-12-29T01:50:52;3.60;;;0.90;;
20751;SDS011;10536;51.582;5.016;2022-12-29T01:55:54;7.53;;;0.93;;
20751;SDS011;10536;51.582;5.016;2022-12-29T02:00:58;5.70;;;1.27;;
20751;SDS011;10536;51.582;5.016;2022-12-29T02:06:02;4.18;;;0.90;;
20751;SDS011;10536;51.582;5.016;2022-12-29T02:11:08;2.80;;;0.60;;
20751;SDS011;10536;51.582;5.016;2022-12-29T02:16:14;2.15;;;0.68;;
20751;SDS011;10536;51.582;5.016;2022-12-29T02:21:45;2.30;;;0.65;;
20751;SDS011;10536;51.582;5.016;2022-12-29T02:27:00;8.73;;;0.82;;
20751;SDS011;10536;51.582;5.016;2022-12-29T02:32:30;2.03;;;0.45;;
20751;SDS011;10536;51.582;5.016;2022-12-29T02:43:03;2.97;;;0.80;;
20751;SDS011;10536;51.582;5.016;2022-12-29T02:48:22;3.33;;;0.50;;
20751;SDS011;10536;51.582;5.016;2022-12-29T02:53:32;4.55;;;0.75;;
20751;SDS011;10536;51.582;5.016;2022-12-29T02:58:47;3.00;;;1.30;;
20751;SDS011;10536;51.582;5.016;2022-12-29T03:03:54;3.22;;;0.45;;
20751;SDS011;10536;51.582;5.016;2022-12-29T03:09:11;3.70;;;0.73;;
20751;SDS011;10536;51.582;5.016;2022-12-29T03:14:27;2.72;;;0.70;;
20751;SDS011;10536;51.582;5.016;2022-12-29T03:19:46;5.03;;;1.02;;
20751;SDS011;10536;51.582;5.016;2022-12-29T03:29:53;2.17;;;0.70;;
20751;SDS011;10536;51.582;5.016;2022-12-29T03:34:58;6.65;;;0.80;;
20751;SDS011;10536;51.582;5.016;2022-12-29T03:39:59;4.47;;;0.88;;
20751;SDS011;10536;51.582;5.016;2022-12-29T03:45:00;3.95;;;0.65;;
20751;SDS011;10536;51.582;5.016;2022-12-29T03:50:00;3.60;;;0.63;;
20751;SDS011;10536;51.582;5.016;2022-12-29T03:55:01;3.47;;;1.45;;
20751;SDS011;10536;51.582;5.016;2022-12-29T04:00:03;3.95;;;0.90;;
20751;SDS011;10536;51.582;5.016;2022-12-29T04:05:05;3.60;;;0.90;;
20751;SDS011;10536;51.582;5.016;2022-12-29T04:10:06;2.55;;;0.77;;
20751;SDS011;10536;51.582;5.016;2022-12-29T04:15:07;2.42;;;0.80;;
20751;SDS011;10536;51.582;5.016;2022-12-29T04:20:09;2.13;;;0.70;;
20751;SDS011;10536;51.582;5.016;2022-12-29T04:25:22;8.18;;;1.13;;
20751;SDS011;10536;51.582;5.016;2022-12-29T04:30:23;8.77;;;1.13;;
20751;SDS011;10536;51.582;5.016;2022-12-29T04:35:23;6.95;;;1.80;;
20751;SDS011;10536;51.582;5.016;2022-12-29T04:40:24;7.13;;;1.92;;
20751;SDS011;10536;51.582;5.016;2022-12-29T04:45:24;11.20;;;1.58;;
20751;SDS011;10536;51.582;5.016;2022-12-29T04:50:25;5.13;;;1.58;;
20751;SDS011;10536;51.582;5.016;2022-12-29T04:55:26;15.18;;;1.70;;
20751;SDS011;10536;51.582;5.016;2022-12-29T05:00:26;9.27;;;1.30;;
20751;SDS011;10536;51.582;5.016;2022-12-29T05:05:27;8.05;;;1.02;;
20751;SDS011;10536;51.582;5.016;2022-12-29T05:10:28;7.65;;;1.02;;
20751;SDS011;10536;51.582;5.016;2022-12-29T05:15:28;9.88;;;1.50;;
20751;SDS011;10536;51.582;5.016;2022-12-29T05:20:29;11.98;;;1.52;;
20751;SDS011;10536;51.582;5.016;2022-12-29T05:25:29;11.90;;;1.02;;
20751;SDS011;10536;51.582;5.016;2022-12-29T05:30:30;7.50;;;1.15;;
20751;SDS011;10536;51.582;5.016;2022-12-29T05:35:31;9.60;;;1.05;;
20751;SDS011;10536;51.582;5.016;2022-12-29T05:40:31;17.27;;;1.80;;
20751;SDS011;10536;51.582;5.016;2022-12-29T05:45:32;9.50;;;1.23;;
20751;SDS011;10536;51.582;5.016;2022-12-29T05:50:33;12.63;;;1.85;;
20751;SDS011;10536;51.582;5.016;2022-12-29T05:55:34;9.90;;;1.50;;
20751;SDS011;10536;51.582;5.016;2022-12-29T06:00:34;12.48;;;1.33;;
20751;SDS011;10536;51.582;5.016;2022-12-29T06:05:35;7.03;;;1.13;;
20751;SDS011;10536;51.582;5.016;2022-12-29T06:10:35;9.38;;;1.17;;
20751;SDS011;10536;51.582;5.016;2022-12-29T06:15:36;5.68;;;0.90;;
20751;SDS011;10536;51.582;5.016;2022-12-29T06:20:37;9.77;;;1.25;;
20751;SDS011;10536;51.582;5.016;2022-12-29T06:25:37;7.07;;;1.00;;
20751;SDS011;10536;51.582;5.016;2022-12-29T06:30:38;8.02;;;1.15;;
20751;SDS011;10536;51.582;5.016;2022-12-29T06:35:38;9.55;;;1.13;;
20751;SDS011;10536;51.582;5.016;2022-12-29T06:40:39;8.95;;;1.60;;
20751;SDS011;10536;51.582;5.016;2022-12-29T06:45:41;12.88;;;1.80;;
20751;SDS011;10536;51.582;5.016;2022-12-29T06:50:42;6.22;;;0.90;;
20751;SDS011;10536;51.582;5.016;2022-12-29T06:55:43;6.18;;;1.13;;
20751;SDS011;10536;51.582;5.016;2022-12-29T07:00:43;8.88;;;1.20;;
20751;SDS011;10536;51.582;5.016;2022-12-29T07:05:44;8.63;;;1.23;;
20751;SDS011;10536;51.582;5.016;2022-12-29T07:10:45;8.88;;;1.25;;
20751;SDS011;10536;51.582;5.016;2022-12-29T07:15:45;6.05;;;1.55;;
20751;SDS011;10536;51.582;5.016;2022-12-29T07:20:46;8.77;;;1.67;;
20751;SDS011;10536;51.582;5.016;2022-12-29T07:25:47;14.20;;;2.35;;
20751;SDS011;10536;51.582;5.016;2022-12-29T07:30:47;19.63;;;2.78;;
20751;SDS011;10536;51.582;5.016;2022-12-29T07:35:48;11.73;;;1.67;;
20751;SDS011;10536;51.582;5.016;2022-12-29T07:40:48;12.82;;;1.77;;
20751;SDS011;10536;51.582;5.016;2022-12-29T07:45:49;9.40;;;1.25;;
20751;SDS011;10536;51.582;5.016;2022-12-29T07:50:50;15.10;;;1.60;;
20751;SDS011;10536;51.582;5.016;2022-12-29T07:55:50;17.02;;;2.17;;
20751;SDS011;10536;51.582;5.016;2022-12-29T08:00:53;9.38;;;1.30;;
20751;SDS011;10536;51.582;5.016;2022-12-29T08:05:54;10.10;;;1.38;;
20751;SDS011;10536;51.582;5.016;2022-12-29T08:10:56;12.10;;;2.03;;
20751;SDS011;10536;51.582;5.016;2022-12-29T08:15:57;12.30;;;2.17;;
20751;SDS011;10536;51.582;5.016;2022-12-29T08:21:02;16.08;;;2.05;;
20751;SDS011;10536;51.582;5.016;2022-12-29T08:26:04;10.13;;;1.45;;
20751;SDS011;10536;51.582;5.016;2022-12-29T08:31:05;17.48;;;2.08;;
20751;SDS011;10536;51.582;5.016;2022-12-29T08:36:06;17.83;;;1.92;;
20751;SDS011;10536;51.582;5.016;2022-12-29T08:41:07;13.30;;;1.98;;
20751;SDS011;10536;51.582;5.016;2022-12-29T08:46:07;18.85;;;6.68;;
20751;SDS011;10536;51.582;5.016;2022-12-29T08:51:08;18.43;;;1.90;;
20751;SDS011;10536;51.582;5.016;2022-12-29T08:56:09;18.27;;;2.00;;
20751;SDS011;10536;51.582;5.016;2022-12-29T09:01:11;11.93;;;1.75;;
20751;SDS011;10536;51.582;5.016;2022-12-29T09:06:11;17.03;;;2.33;;
20751;SDS011;10536;51.582;5.016;2022-12-29T09:11:18;12.57;;;2.65;;
20751;SDS011;10536;51.582;5.016;2022-12-29T09:16:21;10.43;;;1.60;;
20751;SDS011;10536;51.582;5.016;2022-12-29T09:21:24;11.63;;;1.73;;
20751;SDS011;10536;51.582;5.016;2022-12-29T09:26:24;16.95;;;1.65;;
20751;SDS011;10536;51.582;5.016;2022-12-29T09:31:25;14.38;;;2.45;;
20751;SDS011;10536;51.582;5.016;2022-12-29T09:36:25;19.90;;;2.25;;
20751;SDS011;10536;51.582;5.016;2022-12-29T09:41:35;17.37;;;2.30;;
20751;SDS011;10536;51.582;5.016;2022-12-29T09:46:42;17.08;;;3.28;;
20751;SDS011;10536;51.582;5.016;2022-12-29T09:51:47;17.58;;;3.22;;
20751;SDS011;10536;51.582;5.016;2022-12-29T09:56:51;17.00;;;3.55;;
20751;SDS011;10536;51.582;5.016;2022-12-29T10:07:33;11.32;;;1.80;;
20751;SDS011;10536;51.582;5.016;2022-12-29T10:23:33;14.80;;;2.65;;
20751;SDS011;10536;51.582;5.016;2022-12-29T10:29:02;18.15;;;2.90;;
20751;SDS011;10536;51.582;5.016;2022-12-29T10:34:38;19.38;;;3.30;;
20751;SDS011;10536;51.582;5.016;2022-12-29T10:39:45;20.83;;;3.23;;
20751;SDS011;10536;51.582;5.016;2022-12-29T10:44:49;17.52;;;2.80;;
20751;SDS011;10536;51.582;5.016;2022-12-29T10:49:50;23.75;;;2.80;;
20751;SDS011;10536;51.582;5.016;2022-12-29T10:54:53;15.30;;;2.75;;
20751;SDS011;10536;51.582;5.016;2022-12-29T10:59:58;15.25;;;3.05;;
20751;SDS011;10536;51.582;5.016;2022-12-29T11:15:39;23.75;;;3.50;;
20751;SDS011;10536;51.582;5.016;2022-12-29T11:20:41;22.50;;;3.78;;
20751;SDS011;10536;51.582;5.016;2022-12-29T11:25:42;21.65;;;3.38;;
20751;SDS011;10536;51.582;5.016;2022-12-29T11:30:42;22.95;;;4.88;;
20751;SDS011;10536;51.582;5.016;2022-12-29T11:35:43;17.80;;;3.40;;
20751;SDS011;10536;51.582;5.016;2022-12-29T11:40:44;30.08;;;5.70;;
20751;SDS011;10536;51.582;5.016;2022-12-29T11:45:45;14.35;;;3.13;;
20751;SDS011;10536;51.582;5.016;2022-12-29T11:50:50;15.50;;;2.67;;
20751;SDS011;10536;51.582;5.016;2022-12-29T11:56:00;25.40;;;2.97;;
20751;SDS011;10536;51.582;5.016;2022-12-29T12:06:30;25.90;;;3.50;;
20751;SDS011;10536;51.582;5.016;2022-12-29T12:11:37;18.40;;;4.03;;
20751;SDS011;10536;51.582;5.016;2022-12-29T12:16:45;21.85;;;3.75;;
20751;SDS011;10536;51.582;5.016;2022-12-29T12:21:53;21.30;;;3.60;;
20751;SDS011;10536;51.582;5.016;2022-12-29T12:27:03;20.77;;;4.50;;
20751;SDS011;10536;51.582;5.016;2022-12-29T12:32:17;14.38;;;3.70;;
20751;SDS011;10536;51.582;5.016;2022-12-29T12:59:36;18.67;;;4.07;;
20751;SDS011;10536;51.582;5.016;2022-12-29T13:15:46;9.55;;;2.50;;
20751;SDS011;10536;51.582;5.016;2022-12-29T13:31:35;10.77;;;3.63;;
20751;SDS011;10536;51.582;5.016;2022-12-29T13:37:01;22.00;;;4.07;;
20751;SDS011;10536;51.582;5.016;2022-12-29T13:42:07;12.40;;;2.05;;
20751;SDS011;10536;51.582;5.016;2022-12-29T14:08:14;18.83;;;2.58;;
20751;SDS011;10536;51.582;5.016;2022-12-29T14:18:23;20.98;;;3.10;;
20751;SDS011;10536;51.582;5.016;2022-12-29T14:33:36;18.23;;;2.58;;
20751;SDS011;10536;51.582;5.016;2022-12-29T14:38:37;20.30;;;3.45;;
20751;SDS011;10536;51.582;5.016;2022-12-29T14:43:53;14.93;;;2.47;;
20751;SDS011;10536;51.582;5.016;2022-12-29T14:48:57;8.05;;;2.00;;
20751;SDS011;10536;51.582;5.016;2022-12-29T14:54:00;18.10;;;2.20;;
20751;SDS011;10536;51.582;5.016;2022-12-29T14:59:33;8.65;;;1.85;;
20751;SDS011;10536;51.582;5.016;2022-12-29T15:04:35;4.90;;;1.27;;
20751;SDS011;10536;51.582;5.016;2022-12-29T15:09:46;8.82;;;2.30;;
20751;SDS011;10536;51.582;5.016;2022-12-29T15:14:55;10.35;;;1.67;;
20751;SDS011;10536;51.582;5.016;2022-12-29T15:19:57;8.35;;;1.15;;
20751;SDS011;10536;51.582;5.016;2022-12-29T15:24:59;5.55;;;1.33;;
20751;SDS011;10536;51.582;5.016;2022-12-29T15:30:00;9.15;;;1.02;;
20751;SDS011;10536;51.582;5.016;2022-12-29T15:35:13;12.43;;;2.67;;
20751;SDS011;10536;51.582;5.016;2022-12-29T15:40:30;9.50;;;1.80;;
20751;SDS011;10536;51.582;5.016;2022-12-29T15:45:34;16.30;;;4.30;;
20751;SDS011;10536;51.582;5.016;2022-12-29T15:50:35;11.30;;;1.42;;
20751;SDS011;10536;51.582;5.016;2022-12-29T15:55:38;9.95;;;2.70;;
20751;SDS011;10536;51.582;5.016;2022-12-29T16:00:40;9.48;;;1.23;;
20751;SDS011;10536;51.582;5.016;2022-12-29T16:05:53;6.75;;;1.50;;
20751;SDS011;10536;51.582;5.016;2022-12-29T16:11:19;5.82;;;1.60;;
20751;SDS011;10536;51.582;5.016;2022-12-29T16:16:28;7.13;;;1.10;;
20751;SDS011;10536;51.582;5.016;2022-12-29T16:21:34;5.10;;;1.23;;
20751;SDS011;10536;51.582;5.016;2022-12-29T16:26:35;6.15;;;1.20;;
20751;SDS011;10536;51.582;5.016;2022-12-29T16:31:49;7.85;;;1.42;;
20751;SDS011;10536;51.582;5.016;2022-12-29T16:41:53;8.30;;;1.73;;
20751;SDS011;10536;51.582;5.016;2022-12-29T16:52:12;8.00;;;1.45;;
20751;SDS011;10536;51.582;5.016;2022-12-29T16:57:21;15.23;;;2.33;;
20751;SDS011;10536;51.582;5.016;2022-12-29T17:02:26;14.10;;;2.63;;
20751;SDS011;10536;51.582;5.016;2022-12-29T17:07:29;11.70;;;2.10;;
20751;SDS011;10536;51.582;5.016;2022-12-29T17:12:30;27.75;;;2.60;;
20751;SDS011;10536;51.582;5.016;2022-12-29T17:17:35;19.27;;;2.77;;
20751;SDS011;10536;51.582;5.016;2022-12-29T17:22:39;12.60;;;2.20;;
20751;SDS011;10536;51.582;5.016;2022-12-29T17:27:55;13.40;;;1.90;;
20751;SDS011;10536;51.582;5.016;2022-12-29T17:33:03;14.93;;;2.85;;
20751;SDS011;10536;51.582;5.016;2022-12-29T17:38:18;16.67;;;2.80;;
20751;SDS011;10536;51.582;5.016;2022-12-29T17:43:24;20.10;;;3.65;;
20751;SDS011;10536;51.582;5.016;2022-12-29T17:48:26;18.33;;;3.88;;
20751;SDS011;10536;51.582;5.016;2022-12-29T17:53:27;13.20;;;2.13;;
20751;SDS011;10536;51.582;5.016;2022-12-29T17:58:30;15.75;;;2.42;;
20751;SDS011;10536;51.582;5.016;2022-12-29T18:03:32;16.15;;;2.30;;
20751;SDS011;10536;51.582;5.016;2022-12-29T18:08:35;16.38;;;2.75;;
20751;SDS011;10536;51.582;5.016;2022-12-29T18:13:37;19.13;;;2.75;;
20751;SDS011;10536;51.582;5.016;2022-12-29T18:18:38;16.45;;;2.60;;
20751;SDS011;10536;51.582;5.016;2022-12-29T18:23:38;22.13;;;3.35;;
20751;SDS011;10536;51.582;5.016;2022-12-29T18:28:39;27.17;;;3.17;;
20751;SDS011;10536;51.582;5.016;2022-12-29T18:33:39;19.40;;;3.13;;
20751;SDS011;10536;51.582;5.016;2022-12-29T18:38:40;27.70;;;4.03;;
20751;SDS011;10536;51.582;5.016;2022-12-29T18:43:41;18.48;;;3.55;;
20751;SDS011;10536;51.582;5.016;2022-12-29T18:48:41;22.77;;;3.22;;
20751;SDS011;10536;51.582;5.016;2022-12-29T18:53:43;35.90;;;3.42;;
20751;SDS011;10536;51.582;5.016;2022-12-29T18:58:44;22.40;;;3.00;;
20751;SDS011;10536;51.582;5.016;2022-12-29T19:03:44;31.63;;;3.85;;
20751;SDS011;10536;51.582;5.016;2022-12-29T19:08:44;24.77;;;4.10;;
20751;SDS011;10536;51.582;5.016;2022-12-29T19:13:45;23.08;;;4.43;;
20751;SDS011;10536;51.582;5.016;2022-12-29T19:18:46;32.90;;;5.32;;
20751;SDS011;10536;51.582;5.016;2022-12-29T19:23:47;28.75;;;4.60;;
20751;SDS011;10536;51.582;5.016;2022-12-29T19:28:47;30.45;;;4.60;;
20751;SDS011;10536;51.582;5.016;2022-12-29T19:33:48;30.60;;;4.15;;
20751;SDS011;10536;51.582;5.016;2022-12-29T19:38:48;25.58;;;4.25;;
20751;SDS011;10536;51.582;5.016;2022-12-29T19:43:49;33.97;;;5.00;;
20751;SDS011;10536;51.582;5.016;2022-12-29T19:48:49;31.70;;;3.73;;
20751;SDS011;10536;51.582;5.016;2022-12-29T19:53:50;16.40;;;3.50;;
20751;SDS011;10536;51.582;5.016;2022-12-29T19:58:52;22.45;;;3.63;;
20751;SDS011;10536;51.582;5.016;2022-12-29T20:03:53;19.23;;;3.60;;
20751;SDS011;10536;51.582;5.016;2022-12-29T20:08:53;27.30;;;4.22;;
20751;SDS011;10536;51.582;5.016;2022-12-29T20:13:54;23.30;;;3.60;;
20751;SDS011;10536;51.582;5.016;2022-12-29T20:18:55;26.52;;;3.58;;
20751;SDS011;10536;51.582;5.016;2022-12-29T20:23:55;23.80;;;3.78;;
20751;SDS011;10536;51.582;5.016;2022-12-29T20:28:56;25.67;;;3.23;;
20751;SDS011;10536;51.582;5.016;2022-12-29T20:33:57;28.65;;;4.68;;
20751;SDS011;10536;51.582;5.016;2022-12-29T20:38:59;17.52;;;3.22;;
20751;SDS011;10536;51.582;5.016;2022-12-29T20:44:00;21.38;;;3.40;;
20751;SDS011;10536;51.582;5.016;2022-12-29T20:49:03;20.00;;;7.82;;
20751;SDS011;10536;51.582;5.016;2022-12-29T20:54:04;21.35;;;5.68;;
20751;SDS011;10536;51.582;5.016;2022-12-29T20:59:05;23.30;;;6.72;;
20751;SDS011;10536;51.582;5.016;2022-12-29T21:04:05;32.05;;;9.18;;
20751;SDS011;10536;51.582;5.016;2022-12-29T21:09:06;73.43;;;31.60;;
20751;SDS011;10536;51.582;5.016;2022-12-29T21:14:07;51.67;;;20.85;;
20751;SDS011;10536;51.582;5.016;2022-12-29T21:19:08;57.60;;;27.65;;
20751;SDS011;10536;51.582;5.016;2022-12-29T21:24:08;23.83;;;6.75;;
20751;SDS011;10536;51.582;5.016;2022-12-29T21:29:09;22.37;;;5.00;;
20751;SDS011;10536;51.582;5.016;2022-12-29T21:34:09;19.38;;;3.47;;
20751;SDS011;10536;51.582;5.016;2022-12-29T21:39:10;18.98;;;4.90;;
20751;SDS011;10536;51.582;5.016;2022-12-29T21:44:12;18.02;;;3.75;;
20751;SDS011;10536;51.582;5.016;2022-12-29T21:49:31;14.38;;;2.53;;
20751;SDS011;10536;51.582;5.016;2022-12-29T21:54:31;22.92;;;4.90;;
20751;SDS011;10536;51.582;5.016;2022-12-29T21:59:50;16.60;;;3.35;;
20751;SDS011;10536;51.582;5.016;2022-12-29T22:05:10;21.13;;;3.65;;
20751;SDS011;10536;51.582;5.016;2022-12-29T22:10:30;31.73;;;8.85;;
20751;SDS011;10536;51.582;5.016;2022-12-29T22:15:49;28.38;;;5.78;;
20751;SDS011;10536;51.582;5.016;2022-12-29T22:20:50;30.55;;;7.53;;
20751;SDS011;10536;51.582;5.016;2022-12-29T22:25:50;46.00;;;16.60;;
20751;SDS011;10536;51.582;5.016;2022-12-29T22:30:51;30.13;;;8.70;;
20751;SDS011;10536;51.582;5.016;2022-12-29T22:35:52;25.00;;;5.97;;
20751;SDS011;10536;51.582;5.016;2022-12-29T22:40:56;29.77;;;9.57;;
20751;SDS011;10536;51.582;5.016;2022-12-29T22:46:01;17.35;;;4.65;;
20751;SDS011;10536;51.582;5.016;2022-12-29T22:51:03;21.73;;;3.00;;
20751;SDS011;10536;51.582;5.016;2022-12-29T22:56:04;26.02;;;4.82;;
20751;SDS011;10536;51.582;5.016;2022-12-29T23:01:10;26.73;;;10.13;;
20751;SDS011;10536;51.582;5.016;2022-12-29T23:06:13;29.23;;;8.68;;
20751;SDS011;10536;51.582;5.016;2022-12-29T23:11:15;14.60;;;3.63;;
20751;SDS011;10536;51.582;5.016;2022-12-29T23:16:16;24.75;;;7.50;;
20751;SDS011;10536;51.582;5.016;2022-12-29T23:21:17;24.15;;;6.07;;
20751;SDS011;10536;51.582;5.016;2022-12-29T23:26:19;15.05;;;5.07;;
20751;SDS011;10536;51.582;5.016;2022-12-29T23:31:31;14.00;;;2.67;;
20751;SDS011;10536;51.582;5.016;2022-12-29T23:36:32;16.67;;;2.38;;
20751;SDS011;10536;51.582;5.016;2022-12-29T23:41:33;21.90;;;2.95;;
20751;SDS011;10536;51.582;5.016;2022-12-29T23:46:34;22.70;;;6.60;;
20751;SDS011;10536;51.582;5.016;2022-12-29T23:51:35;42.17;;;20.95;;
20751;SDS011;10536;51.582;5.016;2022-12-29T23:56:36;17.00;;;3.58;;
